LFLV 041530Z AUTO 02004KT 350V050 CAVOK 21/13 Q1021

ElémentsDécodage
LFLV Station météo située sur l'aérodrome de VICHY Charmeil
041530Z émis le 04 du mois à 15h30 UTC
AUTO Bulletin édité par un automate
02004KT vent du 020°, 04 noeuds
350V050 vent de direction variable entre 350° et 050°
CAVOK Ceiling And Visibility OK
- Visibilité de 10 Km ou plus
- Pas de nuage au-dessous de 1500m ou au-dessous de l'altitude minimale du secteur la plus élevée (si>1500m) et absence de CB
- pas de temps présent significatif
21/13 température 21°C, point de rosée 13°C
 soit une humidité relative de 60%
Q1021 la pression au niveau de la mer (QNH) est de 1021 hPa